^^
Meteo Knjazevac Station Historical Data
Daily Summary for May 29, 2022 Units:  Both    English   Metric
Daily Weekly Monthly Yearly Custom
  High: Low: Average:
Temperature: 60.4 °F /  15.8 °C 55.4 °F /  13 °C 56.7 °F /  13.7 °C
Dew Point: 57.1 °F /  13.9 °C 53.7 °F /  12.1 °C 54.9 °F /  12.7 °C
Humidity: 95% 89% 94%
Wind Speed: 6mph /  9.7km/h - 3.2mph /  5.1km/h
Wind Gust: 10mph /  16.1km/h - -
Wind- - SW
Pressure: 30.02 in /  1016.5 hPa 29.94 in /  1013.8 hPa -
Precipitation: 0.01 in /  0.25 mm    
Historical Graphs
 
 
Tabular Data for May 29, 2022
Time Temperature Dew Point Pressure Wind Wind Speed Wind Gust Humidity Rainfall Rate (Hourly) solar Conditions
00:00 58.8 °F /  14.9 °C 57.1 °F /  13.9 °C 30.01in /  1016.1hPa SW 5mph /  8km/h 8mph /  12.9km/h 94% 0.00in /  0mm 0 W/m2
00:10 58.5 °F /  14.7 °C 56.4 °F /  13.6 °C 30.02in /  1016.5hPa SW 6mph /  9.7km/h 10mph /  16.1km/h 93% 0.00in /  0mm 0 W/m2
00:20 58.3 °F /  14.6 °C 56.3 °F /  13.5 °C 30.01in /  1016.1hPa SW 2mph /  3.2km/h 8mph /  12.9km/h 93% 0.00in /  0mm 0 W/m2
00:30 58.1 °F /  14.5 °C 56.4 °F /  13.6 °C 30.01in /  1016.1hPa SW 2mph /  3.2km/h 5mph /  8km/h 94% 0.00in /  0mm 0 W/m2
00:40 57.9 °F /  14.4 °C 56.2 °F /  13.4 °C 30.01in /  1016.1hPa SSW 3mph /  4.8km/h 9mph /  14.5km/h 94% 0.00in /  0mm 0 W/m2
00:50 57.6 °F /  14.2 °C 55.8 °F /  13.2 °C 30.01in /  1016.1hPa SW 1mph /  1.6km/h 6mph /  9.7km/h 94% 0.00in /  0mm 0 W/m2
01:00 57.4 °F /  14.1 °C 55.7 °F /  13.2 °C 30.00in /  1015.8hPa West 2mph /  3.2km/h 4mph /  6.4km/h 94% 0.00in /  0mm 0 W/m2
01:10 57.2 °F /  14 °C 55.8 °F /  13.2 °C 30.01in /  1016.1hPa SSW 5mph /  8km/h 6mph /  9.7km/h 95% 0.00in /  0mm 0 W/m2
01:20 57 °F /  13.9 °C 55.6 °F /  13.1 °C 30.00in /  1015.8hPa SW 2mph /  3.2km/h 5mph /  8km/h 95% 0.00in /  0mm 0 W/m2
01:30 57 °F /  13.9 °C 55.6 °F /  13.1 °C 29.99in /  1015.5hPa SSW 2mph /  3.2km/h 4mph /  6.4km/h 95% 0.00in /  0mm 0 W/m2
01:40 57 °F /  13.9 °C 55.6 °F /  13.1 °C 29.99in /  1015.5hPa SW 2mph /  3.2km/h 5mph /  8km/h 95% 0.00in /  0mm 0 W/m2
01:50 57 °F /  13.9 °C 55.6 °F /  13.1 °C 30.00in /  1015.8hPa SW 3mph /  4.8km/h 5mph /  8km/h 95% 0.00in /  0mm 0 W/m2
02:00 57 °F /  13.9 °C 55.6 °F /  13.1 °C 30.00in /  1015.8hPa SSW 2mph /  3.2km/h 5mph /  8km/h 95% 0.00in /  0mm 0 W/m2
02:10 56.8 °F /  13.8 °C 55.4 °F /  13 °C 29.99in /  1015.5hPa WSW 1mph /  1.6km/h 4mph /  6.4km/h 95% 0.00in /  0mm 0 W/m2
02:20 56.8 °F /  13.8 °C 55.4 °F /  13 °C 29.98in /  1015.1hPa WNW 2mph /  3.2km/h 4mph /  6.4km/h 95% 0.00in /  0mm 0 W/m2
02:30 56.7 °F /  13.7 °C 55.3 °F /  12.9 °C 29.98in /  1015.1hPa WNW 3mph /  4.8km/h 5mph /  8km/h 95% 0.00in /  0mm 0 W/m2
02:40 56.6 °F /  13.7 °C 55.2 °F /  12.9 °C 29.98in /  1015.1hPa West 2mph /  3.2km/h 6mph /  9.7km/h 95% 0.00in /  0mm 0 W/m2
02:50 56.5 °F /  13.6 °C 55.1 °F /  12.8 °C 29.97in /  1014.8hPa WSW 2mph /  3.2km/h 5mph /  8km/h 95% 0.00in /  0mm 0 W/m2
03:00 56.5 °F /  13.6 °C 55.1 °F /  12.8 °C 29.98in /  1015.1hPa SW 5mph /  8km/h 7mph /  11.3km/h 95% 0.00in /  0mm 0 W/m2
03:10 56.5 °F /  13.6 °C 55.1 °F /  12.8 °C 29.97in /  1014.8hPa WSW 3mph /  4.8km/h 7mph /  11.3km/h 95% 0.00in /  0mm 0 W/m2
03:20 56.4 °F /  13.6 °C 55 °F /  12.8 °C 29.97in /  1014.8hPa WSW 3mph /  4.8km/h 7mph /  11.3km/h 95% 0.00in /  0mm 0 W/m2
03:30 56.3 °F /  13.5 °C 54.9 °F /  12.7 °C 29.97in /  1014.8hPa WSW 3mph /  4.8km/h 6mph /  9.7km/h 95% 0.00in /  0mm 0 W/m2
03:40 56.2 °F /  13.4 °C 54.8 °F /  12.7 °C 29.97in /  1014.8hPa SW 3mph /  4.8km/h 7mph /  11.3km/h 95% 0.00in /  0mm 0 W/m2
03:50 56.1 °F /  13.4 °C 54.7 °F /  12.6 °C 29.97in /  1014.8hPa SW 5mph /  8km/h 7mph /  11.3km/h 95% 0.00in /  0mm 0 W/m2
04:00 56 °F /  13.3 °C 54.6 °F /  12.6 °C 29.96in /  1014.4hPa SW 5mph /  8km/h 8mph /  12.9km/h 95% 0.00in /  0mm 0 W/m2
04:10 55.9 °F /  13.3 °C 54.5 °F /  12.5 °C 29.96in /  1014.4hPa SW 5mph /  8km/h 8mph /  12.9km/h 95% 0.00in /  0mm 0 W/m2
04:20 55.8 °F /  13.2 °C 54.3 °F /  12.4 °C 29.96in /  1014.4hPa SW 3mph /  4.8km/h 9mph /  14.5km/h 95% 0.00in /  0mm 0 W/m2
04:30 55.8 °F /  13.2 °C 54.3 °F /  12.4 °C 29.96in /  1014.4hPa SSW 2mph /  3.2km/h 5mph /  8km/h 95% 0.00in /  0mm 0 W/m2
04:40 55.8 °F /  13.2 °C 54.3 °F /  12.4 °C 29.95in /  1014.1hPa SSW 1mph /  1.6km/h 4mph /  6.4km/h 95% 0.00in /  0mm 0 W/m2
04:50 55.8 °F /  13.2 °C 54.3 °F /  12.4 °C 29.95in /  1014.1hPa SSW 1mph /  1.6km/h 4mph /  6.4km/h 95% 0.00in /  0mm 0 W/m2
05:00 55.8 °F /  13.2 °C 54.3 °F /  12.4 °C 29.95in /  1014.1hPa SW 2mph /  3.2km/h 5mph /  8km/h 95% 0.00in /  0mm 1 W/m2
05:10 55.8 °F /  13.2 °C 54.3 °F /  12.4 °C 29.95in /  1014.1hPa WSW 2mph /  3.2km/h 5mph /  8km/h 95% 0.00in /  0mm 5 W/m2
05:20 55.9 °F /  13.3 °C 54.5 °F /  12.5 °C 29.95in /  1014.1hPa WSW 2mph /  3.2km/h 4mph /  6.4km/h 95% 0.00in /  0mm 8 W/m2
05:30 55.9 °F /  13.3 °C 54.5 °F /  12.5 °C 29.95in /  1014.1hPa WSW 3mph /  4.8km/h 6mph /  9.7km/h 95% 0.00in /  0mm 11 W/m2
05:40 55.9 °F /  13.3 °C 54.5 °F /  12.5 °C 29.95in /  1014.1hPa SW 5mph /  8km/h 7mph /  11.3km/h 95% 0.00in /  0mm 9 W/m2
05:50 55.8 °F /  13.2 °C 54.3 °F /  12.4 °C 29.95in /  1014.1hPa SW 6mph /  9.7km/h 7mph /  11.3km/h 95% 0.00in /  0mm 12 W/m2
06:00 55.6 °F /  13.1 °C 54.2 °F /  12.3 °C 29.95in /  1014.1hPa SW 3mph /  4.8km/h 8mph /  12.9km/h 95% 0.00in /  0mm 14 W/m2
06:10 55.4 °F /  13 °C 54 °F /  12.2 °C 29.95in /  1014.1hPa SW 5mph /  8km/h 9mph /  14.5km/h 95% 0.00in /  0mm 20 W/m2
06:20 55.4 °F /  13 °C 54 °F /  12.2 °C 29.95in /  1014.1hPa SW 2mph /  3.2km/h 7mph /  11.3km/h 95% 0.00in /  0mm 31 W/m2
06:30 55.4 °F /  13 °C 54 °F /  12.2 °C 29.95in /  1014.1hPa SW 3mph /  4.8km/h 7mph /  11.3km/h 95% 0.00in /  0mm 38 W/m2
06:40 55.4 °F /  13 °C 54 °F /  12.2 °C 29.95in /  1014.1hPa SW 3mph /  4.8km/h 6mph /  9.7km/h 95% 0.00in /  0mm 39 W/m2
06:50 55.4 °F /  13 °C 54 °F /  12.2 °C 29.94in /  1013.8hPa SW 2mph /  3.2km/h 5mph /  8km/h 95% 0.00in /  0mm 35 W/m2
07:00 55.6 °F /  13.1 °C 54.2 °F /  12.3 °C 29.95in /  1014.1hPa SW 2mph /  3.2km/h 3mph /  4.8km/h 95% 0.00in /  0mm 34 W/m2
07:10 55.7 °F /  13.2 °C 54.3 °F /  12.4 °C 29.95in /  1014.1hPa SW 5mph /  8km/h 6mph /  9.7km/h 95% 0.00in /  0mm 69 W/m2
07:20 55.8 °F /  13.2 °C 54.1 °F /  12.3 °C 29.95in /  1014.1hPa WSW 5mph /  8km/h 7mph /  11.3km/h 94% 0.00in /  0mm 95 W/m2
07:30 55.7 °F /  13.2 °C 54 °F /  12.2 °C 29.95in /  1014.1hPa SW 3mph /  4.8km/h 7mph /  11.3km/h 94% 0.00in /  0mm 74 W/m2
07:40 55.7 °F /  13.2 °C 54 °F /  12.2 °C 29.95in /  1014.1hPa SW 5mph /  8km/h 7mph /  11.3km/h 94% 0.00in /  0mm 101 W/m2
07:50 55.9 °F /  13.3 °C 53.9 °F /  12.2 °C 29.96in /  1014.4hPa SW 3mph /  4.8km/h 7mph /  11.3km/h 93% 0.00in /  0mm 84 W/m2
08:00 56.1 °F /  13.4 °C 54.1 °F /  12.3 °C 29.95in /  1014.1hPa SW 6mph /  9.7km/h 9mph /  14.5km/h 93% 0.00in /  0mm 118 W/m2
08:10 56.1 °F /  13.4 °C 54.1 °F /  12.3 °C 29.95in /  1014.1hPa SW 5mph /  8km/h 7mph /  11.3km/h 93% 0.00in /  0mm 135 W/m2
08:20 56.3 °F /  13.5 °C 54 °F /  12.2 °C 29.95in /  1014.1hPa SW 5mph /  8km/h 7mph /  11.3km/h 92% 0.00in /  0mm 126 W/m2
08:30 56.3 °F /  13.5 °C 53.7 °F /  12.1 °C 29.94in /  1013.8hPa SW 3mph /  4.8km/h 7mph /  11.3km/h 91% 0.00in /  0mm 132 W/m2
08:40 56.5 °F /  13.6 °C 54.5 °F /  12.5 °C 29.94in /  1013.8hPa SW 5mph /  8km/h 6mph /  9.7km/h 93% 0.00in /  0mm 204 W/m2
08:50 56.7 °F /  13.7 °C 54.1 °F /  12.3 °C 29.95in /  1014.1hPa SW 5mph /  8km/h 7mph /  11.3km/h 91% 0.00in /  0mm 115 W/m2
09:00 56.8 °F /  13.8 °C 54.2 °F /  12.3 °C 29.94in /  1013.8hPa SW 3mph /  4.8km/h 7mph /  11.3km/h 91% 0.00in /  0mm 136 W/m2
09:10 56.8 °F /  13.8 °C 54.2 °F /  12.3 °C 29.95in /  1014.1hPa SW 3mph /  4.8km/h 7mph /  11.3km/h 91% 0.00in /  0mm 127 W/m2
09:20 56.8 °F /  13.8 °C 54.2 °F /  12.3 °C 29.94in /  1013.8hPa SW 3mph /  4.8km/h 7mph /  11.3km/h 91% 0.00in /  0mm 334 W/m2
09:30 57.4 °F /  14.1 °C 54.5 °F /  12.5 °C 29.94in /  1013.8hPa SW 3mph /  4.8km/h 6mph /  9.7km/h 90% 0.00in /  0mm 208 W/m2
09:40 57.6 °F /  14.2 °C 54.6 °F /  12.6 °C 29.95in /  1014.1hPa SW 3mph /  4.8km/h 6mph /  9.7km/h 90% 0.00in /  0mm 294 W/m2
09:50 58.3 °F /  14.6 °C 55.7 °F /  13.2 °C 29.94in /  1013.8hPa SW 3mph /  4.8km/h 7mph /  11.3km/h 91% 0.00in /  0mm 402 W/m2
10:00 58.9 °F /  14.9 °C 56 °F /  13.3 °C 29.94in /  1013.8hPa SW 3mph /  4.8km/h 7mph /  11.3km/h 90% 0.01in /  0.25mm 392 W/m2
10:10 59.5 °F /  15.3 °C 56.3 °F /  13.5 °C 29.94in /  1013.8hPa SW 2mph /  3.2km/h 7mph /  11.3km/h 89% 0.00in /  0mm 357 W/m2
10:20 60 °F /  15.6 °C 56.8 °F /  13.8 °C 29.94in /  1013.8hPa SW 3mph /  4.8km/h 6mph /  9.7km/h 89% 0.00in /  0mm 303 W/m2
10:30 60.4 °F /  15.8 °C 57.1 °F /  13.9 °C 29.94in /  1013.8hPa WSW 3mph /  4.8km/h 5mph /  8km/h 89% 0.00in /  0mm 305 W/m2
Knjazevac, Serbia
Compliments of Weather Underground - 2 mb